Strona główna
METAR-TAF:

METAR-TAF

Lotnisko :

Port lotniczy Ndżamena

Ndżamena, Czad

Szerokość geograficzna: 12-08N, Długość geograficzna: 015-02E, wysokość: 295 m

Aktualna obserwacja pogody

Raport powstał 1 godzina i 14 minut temu, godzina 21:00 UTC
Wiatr 4 kt od północno-północny zachód
Temperatura 20°C
Wilgotność 32%
Ciśnienie 1017 hPa
Widzialność: 8000 m

METAR: FTTJ 092100Z 33004KT 8000 NSC 20/03 Q1017 NOSIG

czas: 23:14 (22:14 UTC)

Prognoza

Raport powstał 5 godziny i 14 minut temu, godzina 17:00 UTC
Prognoza ważna od 09 godzina 18 UTC do 10 godzina 24 UTC
Wiatr 8 kt od północ
Widzialność: 8000 m
Stopniowe zmiany
od 10 godzina 16 UTC do 10 godzina 17 UTC
Widzialność: 2500 m
pył

TAF: FTTJ 091700Z 0918/1024 01008KT 8000 NSC BECMG 1016/1017 2500 DU

Obserwacja i prognoza pogody dla ponad 4000 lotnisk (raport METAR i TAF).

Dostępne stacje oznaczono żółtymi i czerwonymi punktami na mapie.

Najedź kursorem aby zobaczyć nazwę stacji.

Kliknij aby zobaczyć obserwacje i prognozy pogody.

Aby zmienić mapę: kliknij na zielony przycisk z czarnym krzyżykiem, aby powiększyć; na zielony przycisk z myślnikiem, aby pomniejszyć; na zielone strzałki, aby przejść do map sąsiednich.


METAR-TAF: